Hon Henry Jackman — C6VQ9 — position and weather

sailwx.info

Track history (hours):
 
Tides and Currents Weather Stations Pressure Air Temp Water Temp Dewpoint Dewpoint Depression Visibility Wind Speed Wind Dir Waves Ship Positions

Hon Henry Jackman

Last reported at 2018-Jan-21 16:30 UTC. Time now 2018-Jan-21 16:32 UTC.
Position N 37°34' W 122°12'.

Length 245 m; draft 13.2 m.

Type: Cargo ship. MMSI: 309822000.

Date/timePositionNaut miles runAvg speedWind from/ knotsBaromVisibWave heightAir tempDewpointWater temp
2018-Jan-21 16:30N 37°34' W 122°12'3 4.9
2018-Jan-21 15:56N 37°31' W 122°13'0 0.0
2018-Jan-21 13:59N 37°31' W 122°13'0 0.0
2018-Jan-21 12:13N 37°31' W 122°13'0 0.0
2018-Jan-21 10:07N 37°31' W 122°13'0 0.0
2018-Jan-21 09:49N 37°31' W 122°13'0 0.0
2018-Jan-20 19:37N 37°31' W 122°13'0 0.0
2018-Jan-20 19:19N 37°31' W 122°13'0 0.0
2018-Jan-20 18:55N 37°31' W 122°13'0 0.0
2018-Jan-20 18:25N 37°31' W 122°13'0 0.0
2018-Jan-20 17:37N 37°31' W 122°13'0 0.0
2018-Jan-20 17:25N 37°31' W 122°13'0 0.0
2018-Jan-20 16:49N 37°31' W 122°13'0 0.0
2018-Jan-20 16:31N 37°31' W 122°13'0 0.3
2018-Jan-20 16:00N 37°31' W 122°12'1 3.0
2018-Jan-20 15:30N 37°32' W 122°12'4 7.2
2018-Jan-20 15:00N 37°35' W 122°15'510.1
2018-Jan-20 14:30N 37°39' W 122°19'5 9.3
2018-Jan-20 14:00N 37°43' W 122°21'510.7
2018-Jan-20 13:30N 37°48' W 122°22'2 3.2
2018-Jan-20 12:59N 37°50' W 122°24'0 0.1
2018-Jan-20 12:29N 37°50' W 122°23'0 0.1
2018-Jan-20 11:59N 37°50' W 122°24'0 0.3
2018-Jan-20 11:29N 37°50' W 122°24'0 0.2
2018-Jan-20 10:59N 37°49' W 122°23'0 0.1
2018-Jan-20 10:29N 37°49' W 122°23'0 0.1
2018-Jan-20 09:59N 37°49' W 122°23'0 0.0
2018-Jan-20 09:29N 37°49' W 122°23'1 1.3
2018-Jan-20 09:00N 37°49' W 122°24'510.0
2018-Jan-20 08:30N 37°54' W 122°25'2 3.9
2018-Jan-20 08:00N 37°54' W 122°23'1 2.2
2018-Jan-20 07:30N 37°55' W 122°22'0 0.0
2018-Jan-20 06:58N 37°55' W 122°22'0 0.0
2018-Jan-20 06:28N 37°55' W 122°22'0 0.0
2018-Jan-20 05:58N 37°55' W 122°22'0 0.0
2018-Jan-20 05:25N 37°55' W 122°22'0 0.0
2018-Jan-20 04:58N 37°55' W 122°22'0 0.0
2018-Jan-20 04:28N 37°55' W 122°22'0 0.0
2018-Jan-20 03:55N 37°55' W 122°22'0 0.0
2018-Jan-20 03:25N 37°55' W 122°22'0 0.0
2018-Jan-20 02:58N 37°55' W 122°22'0 0.0
2018-Jan-20 02:28N 37°55' W 122°22'0 0.0
2018-Jan-20 01:55N 37°55' W 122°22'0 0.0
2018-Jan-20 01:28N 37°55' W 122°22'0 0.0
2018-Jan-20 00:55N 37°55' W 122°22'0 0.0
2018-Jan-20 00:28N 37°55' W 122°22'0 0.0
2018-Jan-19 23:52N 37°55' W 122°22'0 0.2
2018-Jan-19 23:30N 37°55' W 122°22'1 1.5
2018-Jan-19 23:00N 37°54' W 122°22'2 3.5
2018-Jan-19 22:30N 37°54' W 122°24'2 3.0
2018-Jan-19 22:00N 37°53' W 122°25'510.2
2018-Jan-19 21:31N 37°48' W 122°23'3 5.1
2018-Jan-19 20:59N 37°46' W 122°22'0 0.2
2018-Jan-19 20:29N 37°46' W 122°21'0 0.0
2018-Jan-19 19:59N 37°46' W 122°21'0 0.1
2018-Jan-19 19:29N 37°46' W 122°21'0 0.0
2018-Jan-19 18:59N 37°46' W 122°21'0 0.0
2018-Jan-19 18:29N 37°46' W 122°21'0 0.0
2018-Jan-19 17:59N 37°46' W 122°21'0 0.0
2018-Jan-19 17:29N 37°46' W 122°21'0 0.1
2018-Jan-19 16:59N 37°46' W 122°21'0 0.0
2018-Jan-19 16:29N 37°46' W 122°21'0 0.3
2018-Jan-19 15:59N 37°46' W 122°21'0 0.3
2018-Jan-19 15:29N 37°46' W 122°21'0 0.0
2018-Jan-19 14:59N 37°46' W 122°21'0 0.1
2018-Jan-19 14:29N 37°46' W 122°22'0 0.0
2018-Jan-19 13:59N 37°46' W 122°22'0 0.0
2018-Jan-19 13:29N 37°46' W 122°22'0 0.0
2018-Jan-19 12:59N 37°46' W 122°22'0 0.0
2018-Jan-19 12:29N 37°46' W 122°22'0 0.0
2018-Jan-19 11:59N 37°46' W 122°22'0 0.0
2018-Jan-19 11:29N 37°46' W 122°22'0 0.1
2018-Jan-19 10:59N 37°46' W 122°22'0 0.4
2018-Jan-19 10:29N 37°46' W 122°21'0 0.1
2018-Jan-19 09:59N 37°46' W 122°21'0 0.0
2018-Jan-19 09:29N 37°46' W 122°21'0 0.0
2018-Jan-19 08:59N 37°46' W 122°21'0 0.0
2018-Jan-19 08:29N 37°46' W 122°21'0 0.0
2018-Jan-19 07:59N 37°46' W 122°21'0 0.0
2018-Jan-19 07:29N 37°46' W 122°21'0 0.0
2018-Jan-19 06:59N 37°46' W 122°21'0 0.0
2018-Jan-19 06:29N 37°46' W 122°21'0 0.0
2018-Jan-19 05:59N 37°46' W 122°21'0 0.1
2018-Jan-19 05:29N 37°46' W 122°21'0 0.0
2018-Jan-19 04:59N 37°46' W 122°21'0 0.1
2018-Jan-19 04:29N 37°46' W 122°21'0 0.3
2018-Jan-19 03:59N 37°46' W 122°21'0 0.2
2018-Jan-19 03:29N 37°46' W 122°21'0 0.1
2018-Jan-19 02:59N 37°46' W 122°22'0 0.0
2018-Jan-19 02:29N 37°46' W 122°22'0 0.1
2018-Jan-19 01:58N 37°46' W 122°22'0 0.0
2018-Jan-19 01:28N 37°46' W 122°22'0 0.0
2018-Jan-19 00:58N 37°46' W 122°22'0 0.1
2018-Jan-19 00:28N 37°46' W 122°22'0 0.1
2018-Jan-18 23:58N 37°46' W 122°21'0 0.1
2018-Jan-18 23:28N 37°46' W 122°22'0 0.1
2018-Jan-18 22:58N 37°46' W 122°22'0 0.0
2018-Jan-18 22:28N 37°46' W 122°22'0 0.1
2018-Jan-18 21:58N 37°46' W 122°22'0 0.2
2018-Jan-18 21:28N 37°46' W 122°22'0 0.4
2018-Jan-18 20:58N 37°46' W 122°21'0 0.1
2018-Jan-18 20:28N 37°46' W 122°21'0 0.1
2018-Jan-18 19:58N 37°46' W 122°21'0 0.0
2018-Jan-18 19:28N 37°46' W 122°21'0 0.0
2018-Jan-18 18:58N 37°46' W 122°21'0 0.1
2018-Jan-18 18:28N 37°46' W 122°21'1 1.1
2018-Jan-18 18:00N 37°46' W 122°21'4 8.3
2018-Jan-18 17:30N 37°49' W 122°26'612.1
2018-Jan-18 17:00N 37°47' W 122°33'510.7
2018-Jan-18 16:30N 37°46' W 122°39'5 9.7
2018-Jan-18 16:00N 37°47' W 122°46'510.9
2018-Jan-18 15:30N 37°49' W 122°52'5 9.2
2018-Jan-18 15:00N 37°51' W 122°57'510.4
2018-Jan-18 14:30N 37°54' W 123°03'510.8
2018-Jan-18 14:00N 37°56' W 123°09'510.2
2018-Jan-18 13:30N 37°60' W 123°13'510.7
2018-Jan-18 13:00N 38°04' W 123°18'510.7
2018-Jan-18 12:30N 38°08' W 123°22'611.4
2018-Jan-18 12:00N 38°12' W 123°27'611.4
2018-Jan-18 11:30N 38°16' W 123°32'611.4
2018-Jan-18 11:00N 38°20' W 123°37'611.4
2018-Jan-18 10:30N 38°25' W 123°42'611.3
2018-Jan-18 10:00N 38°29' W 123°46'  
Track history (hours):
 
Tides and Currents Weather Stations Pressure Air Temp Water Temp Dewpoint Dewpoint Depression Visibility Wind Speed Wind Dir Waves Ship Positions

Hon Henry Jackman

Last reported at 2018-Jan-21 16:30 UTC. Time now 2018-Jan-21 16:32 UTC.
Position N 37°34' W 122°12'.

Length 245 m; draft 13.2 m.

Type: Cargo ship. MMSI: 309822000.

Date/timePositionNaut miles runAvg speedWind from/ knotsBaromVisibWave heightAir tempDewpointWater temp
2018-Jan-21 16:30N 37°34' W 122°12'3 4.9
2018-Jan-21 15:56N 37°31' W 122°13'0 0.0
2018-Jan-21 13:59N 37°31' W 122°13'0 0.0
2018-Jan-21 12:13N 37°31' W 122°13'0 0.0
2018-Jan-21 10:07N 37°31' W 122°13'0 0.0
2018-Jan-21 09:49N 37°31' W 122°13'0 0.0
2018-Jan-20 19:37N 37°31' W 122°13'0 0.0
2018-Jan-20 19:19N 37°31' W 122°13'0 0.0
2018-Jan-20 18:55N 37°31' W 122°13'0 0.0
2018-Jan-20 18:25N 37°31' W 122°13'0 0.0
2018-Jan-20 17:37N 37°31' W 122°13'0 0.0
2018-Jan-20 17:25N 37°31' W 122°13'0 0.0
2018-Jan-20 16:49N 37°31' W 122°13'0 0.0
2018-Jan-20 16:31N 37°31' W 122°13'0 0.3
2018-Jan-20 16:00N 37°31' W 122°12'1 3.0
2018-Jan-20 15:30N 37°32' W 122°12'4 7.2
2018-Jan-20 15:00N 37°35' W 122°15'510.1
2018-Jan-20 14:30N 37°39' W 122°19'5 9.3
2018-Jan-20 14:00N 37°43' W 122°21'510.7
2018-Jan-20 13:30N 37°48' W 122°22'2 3.2
2018-Jan-20 12:59N 37°50' W 122°24'0 0.1
2018-Jan-20 12:29N 37°50' W 122°23'0 0.1
2018-Jan-20 11:59N 37°50' W 122°24'0 0.3
2018-Jan-20 11:29N 37°50' W 122°24'0 0.2
2018-Jan-20 10:59N 37°49' W 122°23'0 0.1
2018-Jan-20 10:29N 37°49' W 122°23'0 0.1
2018-Jan-20 09:59N 37°49' W 122°23'0 0.0
2018-Jan-20 09:29N 37°49' W 122°23'1 1.3
2018-Jan-20 09:00N 37°49' W 122°24'510.0
2018-Jan-20 08:30N 37°54' W 122°25'2 3.9
2018-Jan-20 08:00N 37°54' W 122°23'1 2.2
2018-Jan-20 07:30N 37°55' W 122°22'0 0.0
2018-Jan-20 06:58N 37°55' W 122°22'0 0.0
2018-Jan-20 06:28N 37°55' W 122°22'0 0.0
2018-Jan-20 05:58N 37°55' W 122°22'0 0.0
2018-Jan-20 05:25N 37°55' W 122°22'0 0.0
2018-Jan-20 04:58N 37°55' W 122°22'0 0.0
2018-Jan-20 04:28N 37°55' W 122°22'0 0.0
2018-Jan-20 03:55N 37°55' W 122°22'0 0.0
2018-Jan-20 03:25N 37°55' W 122°22'0 0.0
2018-Jan-20 02:58N 37°55' W 122°22'0 0.0
2018-Jan-20 02:28N 37°55' W 122°22'0 0.0
2018-Jan-20 01:55N 37°55' W 122°22'0 0.0
2018-Jan-20 01:28N 37°55' W 122°22'0 0.0
2018-Jan-20 00:55N 37°55' W 122°22'0 0.0
2018-Jan-20 00:28N 37°55' W 122°22'0 0.0
2018-Jan-19 23:52N 37°55' W 122°22'0 0.2
2018-Jan-19 23:30N 37°55' W 122°22'1 1.5
2018-Jan-19 23:00N 37°54' W 122°22'2 3.5
2018-Jan-19 22:30N 37°54' W 122°24'2 3.0
2018-Jan-19 22:00N 37°53' W 122°25'510.2
2018-Jan-19 21:31N 37°48' W 122°23'3 5.1
2018-Jan-19 20:59N 37°46' W 122°22'0 0.2
2018-Jan-19 20:29N 37°46' W 122°21'0 0.0
2018-Jan-19 19:59N 37°46' W 122°21'0 0.1
2018-Jan-19 19:29N 37°46' W 122°21'0 0.0
2018-Jan-19 18:59N 37°46' W 122°21'0 0.0
2018-Jan-19 18:29N 37°46' W 122°21'0 0.0
2018-Jan-19 17:59N 37°46' W 122°21'0 0.0
2018-Jan-19 17:29N 37°46' W 122°21'0 0.1
2018-Jan-19 16:59N 37°46' W 122°21'0 0.0
2018-Jan-19 16:29N 37°46' W 122°21'0 0.3
2018-Jan-19 15:59N 37°46' W 122°21'0 0.3
2018-Jan-19 15:29N 37°46' W 122°21'0 0.0
2018-Jan-19 14:59N 37°46' W 122°21'0 0.1
2018-Jan-19 14:29N 37°46' W 122°22'0 0.0
2018-Jan-19 13:59N 37°46' W 122°22'0 0.0
2018-Jan-19 13:29N 37°46' W 122°22'0 0.0
2018-Jan-19 12:59N 37°46' W 122°22'0 0.0
2018-Jan-19 12:29N 37°46' W 122°22'0 0.0
2018-Jan-19 11:59N 37°46' W 122°22'0 0.0
2018-Jan-19 11:29N 37°46' W 122°22'0 0.1
2018-Jan-19 10:59N 37°46' W 122°22'0 0.4
2018-Jan-19 10:29N 37°46' W 122°21'0 0.1
2018-Jan-19 09:59N 37°46' W 122°21'0 0.0
2018-Jan-19 09:29N 37°46' W 122°21'0 0.0
2018-Jan-19 08:59N 37°46' W 122°21'0 0.0
2018-Jan-19 08:29N 37°46' W 122°21'0 0.0
2018-Jan-19 07:59N 37°46' W 122°21'0 0.0
2018-Jan-19 07:29N 37°46' W 122°21'0 0.0
2018-Jan-19 06:59N 37°46' W 122°21'0 0.0
2018-Jan-19 06:29N 37°46' W 122°21'0 0.0
2018-Jan-19 05:59N 37°46' W 122°21'0 0.1
2018-Jan-19 05:29N 37°46' W 122°21'0 0.0
2018-Jan-19 04:59N 37°46' W 122°21'0 0.1
2018-Jan-19 04:29N 37°46' W 122°21'0 0.3
2018-Jan-19 03:59N 37°46' W 122°21'0 0.2
2018-Jan-19 03:29N 37°46' W 122°21'0 0.1
2018-Jan-19 02:59N 37°46' W 122°22'0 0.0
2018-Jan-19 02:29N 37°46' W 122°22'0 0.1
2018-Jan-19 01:58N 37°46' W 122°22'0 0.0
2018-Jan-19 01:28N 37°46' W 122°22'0 0.0
2018-Jan-19 00:58N 37°46' W 122°22'0 0.1
2018-Jan-19 00:28N 37°46' W 122°22'0 0.1
2018-Jan-18 23:58N 37°46' W 122°21'0 0.1
2018-Jan-18 23:28N 37°46' W 122°22'0 0.1
2018-Jan-18 22:58N 37°46' W 122°22'0 0.0
2018-Jan-18 22:28N 37°46' W 122°22'0 0.1
2018-Jan-18 21:58N 37°46' W 122°22'0 0.2
2018-Jan-18 21:28N 37°46' W 122°22'0 0.4
2018-Jan-18 20:58N 37°46' W 122°21'0 0.1
2018-Jan-18 20:28N 37°46' W 122°21'0 0.1
2018-Jan-18 19:58N 37°46' W 122°21'0 0.0
2018-Jan-18 19:28N 37°46' W 122°21'0 0.0
2018-Jan-18 18:58N 37°46' W 122°21'0 0.1
2018-Jan-18 18:28N 37°46' W 122°21'1 1.1
2018-Jan-18 18:00N 37°46' W 122°21'4 8.3
2018-Jan-18 17:30N 37°49' W 122°26'612.1
2018-Jan-18 17:00N 37°47' W 122°33'510.7
2018-Jan-18 16:30N 37°46' W 122°39'5 9.7
2018-Jan-18 16:00N 37°47' W 122°46'510.9
2018-Jan-18 15:30N 37°49' W 122°52'5 9.2
2018-Jan-18 15:00N 37°51' W 122°57'510.4
2018-Jan-18 14:30N 37°54' W 123°03'510.8
2018-Jan-18 14:00N 37°56' W 123°09'510.2
2018-Jan-18 13:30N 37°60' W 123°13'510.7
2018-Jan-18 13:00N 38°04' W 123°18'510.7
2018-Jan-18 12:30N 38°08' W 123°22'611.4
2018-Jan-18 12:00N 38°12' W 123°27'611.4
2018-Jan-18 11:30N 38°16' W 123°32'611.4
2018-Jan-18 11:00N 38°20' W 123°37'611.4
2018-Jan-18 10:30N 38°25' W 123°42'611.3
2018-Jan-18 10:00N 38°29' W 123°46'  

Dump ship's entire track history